Time;durP1;ratioP1;P1;durP2;ratioP2;P2;SDS_P1;SDS_P2;PMS_P1;PMS_P2;Temp;Humidity;BMP_temperature;BMP_pressure;BME280_temperature;BME280_humidity;BME280_pressure;Samples;Min_cycle;Max_cycle;Signal;HPM_P1;HPM_P2
2023/07/05 00:01:53;;;;;;;5.57;3.97;;;;;;;18.12;100.00;100331.84;5170247;28;20034;-77
2023/07/05 00:04:25;;;;;;;8.27;3.23;;;;;;;18.27;100.00;100334.00;5171392;28;20113;-77
2023/07/05 00:06:56;;;;;;;6.60;3.67;;;;;;;18.23;100.00;100324.66;5170571;28;20058;-72
2023/07/05 00:09:27;;;;;;;5.13;3.43;;;;;;;17.99;100.00;100307.59;5168977;28;20045;-76
2023/07/05 00:11:59;;;;;;;6.00;3.70;;;;;;;18.13;100.00;100311.50;5170208;28;20078;-76
2023/07/05 00:14:30;;;;;;;6.63;3.63;;;;;;;18.06;100.00;100311.28;5170424;28;20042;-76
2023/07/05 00:17:01;;;;;;;6.83;3.73;;;;;;;17.93;100.00;100301.09;5170897;28;20023;-76
2023/07/05 00:19:32;;;;;;;5.60;3.77;;;;;;;17.88;100.00;100280.38;5171076;28;20026;-77
2023/07/05 00:22:04;;;;;;;4.97;3.13;;;;;;;17.88;100.00;100267.13;5170335;28;20034;-77
2023/07/05 00:24:35;;;;;;;6.27;3.13;;;;;;;17.99;100.00;100259.91;5169000;28;20105;-76
2023/07/05 00:27:06;;;;;;;4.37;3.10;;;;;;;18.01;100.00;100244.69;5185985;28;20023;-75
2023/07/05 00:29:38;;;;;;;3.73;3.00;;;;;;;17.94;100.00;100256.88;5170689;28;20603;-76
2023/07/05 00:32:09;;;;;;;4.83;3.27;;;;;;;17.84;100.00;100241.91;5170937;28;20107;-76
2023/07/05 00:34:41;;;;;;;5.67;3.17;;;;;;;17.84;100.00;100226.03;5170271;28;20054;-77
2023/07/05 00:37:13;;;;;;;6.77;3.63;;;;;;;17.92;100.00;100224.41;5170507;28;20031;-77
2023/07/05 00:39:44;;;;;;;5.53;3.27;;;;;;;17.86;100.00;100181.69;5169438;28;20027;-77
2023/07/05 00:42:15;;;;;;;5.53;3.23;;;;;;;17.74;100.00;100193.50;5170298;28;20169;-77
2023/07/05 00:45:08;;;;;;;7.13;3.50;;;;;;;17.92;100.00;100205.88;5170628;28;20041;-77
2023/07/05 00:47:42;;;;;;;4.93;3.30;;;;;;;17.68;100.00;100225.91;5169900;28;20035;-77
2023/07/05 00:50:24;;;;;;;4.73;2.63;;;;;;;17.81;100.00;100205.16;5170219;28;20087;-76
2023/07/05 00:52:57;;;;;;;4.43;2.67;;;;;;;17.73;100.00;100221.81;5168473;28;20275;-71
2023/07/05 00:55:28;;;;;;;7.63;3.00;;;;;;;17.65;100.00;100206.69;5183881;28;20031;-77
2023/07/05 00:58:01;;;;;;;5.80;3.20;;;;;;;17.73;100.00;100205.09;5170258;28;20029;-73
2023/07/05 01:00:32;;;;;;;5.40;3.10;;;;;;;17.71;100.00;100188.53;5169856;28;20031;-76
2023/07/05 01:03:10;;;;;;;7.37;3.00;;;;;;;17.57;100.00;100193.41;5169969;28;20034;-76
2023/07/05 01:08:18;;;;;;;9.07;3.53;;;;;;;17.46;100.00;100169.81;5235335;28;20049;-74
2023/07/05 01:11:19;;;;;;;6.03;3.37;;;;;;;17.71;100.00;100170.00;5238562;28;20040;-76
2023/07/05 01:14:29;;;;;;;4.20;3.40;;;;;;;17.78;100.00;100168.38;5199606;28;20037;-75
2023/07/05 01:17:19;;;;;;;6.17;3.50;;;;;;;17.78;100.00;100176.34;5237152;28;20468;-74
2023/07/05 01:20:01;;;;;;;4.50;2.90;;;;;;;17.59;100.00;100172.91;5238653;28;20030;-75
2023/07/05 01:22:49;;;;;;;4.83;3.10;;;;;;;17.75;100.00;100166.88;5252664;28;20426;-75
2023/07/05 01:25:41;;;;;;;5.93;3.07;;;;;;;17.84;100.00;100177.53;5236870;28;20030;-76
2023/07/05 01:28:37;;;;;;;4.93;3.57;;;;;;;17.82;100.00;100174.22;5237561;28;20039;-73
2023/07/05 01:31:36;;;;;;;7.80;3.23;;;;;;;17.76;100.00;100175.66;5238126;28;20120;-75
2023/07/05 01:34:21;;;;;;;6.17;3.43;;;;;;;17.76;100.00;100186.25;5238375;28;20028;-75
2023/07/05 01:36:52;;;;;;;5.70;3.10;;;;;;;17.65;100.00;100174.94;5238213;28;20092;-74
2023/07/05 01:39:24;;;;;;;5.30;3.10;;;;;;;17.58;100.00;100162.44;5236649;28;20026;-71
2023/07/05 01:41:56;;;;;;;4.03;2.53;;;;;;;17.65;100.00;100174.94;5252490;28;20025;-75
2023/07/05 01:44:28;;;;;;;4.23;2.30;;;;;;;17.65;100.00;100185.53;5236863;28;20025;-72
2023/07/05 01:47:27;;;;;;;4.20;2.30;;;;;;;17.90;100.00;100187.50;5237302;28;20025;-73
2023/07/05 01:50:30;;;;;;;3.57;2.57;;;;;;;17.90;100.00;100188.34;5237340;28;20068;-75
2023/07/05 01:53:23;;;;;;;3.33;1.90;;;;;;;17.76;100.00;100194.19;5234689;28;20041;-74
2023/07/05 01:56:20;;;;;;;4.60;2.57;;;;;;;17.73;100.00;100184.72;5252234;28;20056;-76
2023/07/05 01:58:54;;;;;;;6.80;2.93;;;;;;;17.62;100.00;100204.38;5236264;28;20083;-76
2023/07/05 02:01:27;;;;;;;3.25;2.42;;;;;;;17.66;100.00;100224.25;5237824;28;20792;-76
2023/07/05 02:04:02;;;;;;;4.50;2.58;;;;;;;17.65;100.00;100225.22;5236937;28;20038;-76
2023/07/05 02:06:37;;;;;;;3.67;2.17;;;;;;;17.55;100.00;100235.09;5236335;28;20126;-72
2023/07/05 02:09:08;;;;;;;3.60;2.20;;;;;;;17.37;100.00;100241.22;5251727;28;20063;-72
2023/07/05 02:11:40;;;;;;;2.80;1.53;;;;;;;17.32;100.00;100264.66;5236292;28;20108;-77
2023/07/05 02:14:11;;;;;;;3.10;1.70;;;;;;;17.28;100.00;100268.56;5251994;28;20494;-73
2023/07/05 02:16:43;;;;;;;3.53;1.50;;;;;;;17.21;100.00;100276.28;5236027;28;20799;-76
2023/07/05 02:19:14;;;;;;;3.60;1.67;;;;;;;16.90;100.00;100256.28;5236615;28;20037;-76
2023/07/05 02:21:46;;;;;;;3.00;1.90;;;;;;;16.94;100.00;100280.63;5236397;28;20249;-78
2023/07/05 02:24:17;;;;;;;3.80;1.70;;;;;;;16.86;100.00;100286.63;5235491;28;20041;-77
2023/07/05 02:26:52;;;;;;;4.03;1.93;;;;;;;16.82;100.00;100290.56;5251582;28;20032;-77
2023/07/05 02:29:24;;;;;;;3.90;1.70;;;;;;;16.80;100.00;100289.88;5236002;28;20103;-76
2023/07/05 02:31:55;;;;;;;3.53;2.30;;;;;;;16.74;100.00;100298.41;5236420;28;20030;-72
2023/07/05 02:34:27;;;;;;;5.50;2.13;;;;;;;16.63;100.00;100318.75;5236610;28;20032;-70
2023/07/05 02:36:58;;;;;;;4.97;2.43;;;;;;;16.56;100.00;100312.38;5251593;28;20026;-74
2023/07/05 02:39:30;;;;;;;3.27;2.70;;;;;;;16.37;100.00;100316.72;5234010;28;20030;-75
2023/07/05 02:42:02;;;;;;;5.23;2.60;;;;;;;16.30;100.00;100313.00;5236346;28;20025;-75
2023/07/05 02:44:34;;;;;;;4.27;2.97;;;;;;;16.32;100.00;100297.81;5236557;28;20037;-76
2023/07/05 02:47:06;;;;;;;4.53;2.40;;;;;;;16.35;100.00;100310.78;5236859;28;20025;-77
2023/07/05 02:49:37;;;;;;;4.27;2.83;;;;;;;16.28;100.00;100309.69;5236213;28;20549;-76
2023/07/05 02:52:09;;;;;;;5.23;2.33;;;;;;;16.14;100.00;100314.44;5237177;28;20065;-75
2023/07/05 02:54:41;;;;;;;6.13;2.53;;;;;;;16.16;100.00;100315.09;5235349;28;20025;-76
2023/07/05 02:57:12;;;;;;;4.33;2.93;;;;;;;16.13;100.00;100306.66;5235961;28;20037;-75
2023/07/05 02:59:43;;;;;;;6.97;2.90;;;;;;;16.09;100.00;100304.28;5235569;28;20033;-77
2023/07/05 03:02:15;;;;;;;7.43;3.13;;;;;;;16.15;100.00;100296.75;5234723;28;20120;-71
2023/07/05 03:04:47;;;;;;;6.23;2.67;;;;;;;16.11;100.00;100283.00;5250943;28;20114;-76
2023/07/05 03:07:19;;;;;;;4.93;3.00;;;;;;;15.99;100.00;100310.53;5235611;28;20052;-72
2023/07/05 03:09:50;;;;;;;6.50;2.70;;;;;;;15.96;100.00;100314.28;5234442;28;20025;-77
2023/07/05 03:12:21;;;;;;;4.33;2.70;;;;;;;15.88;100.00;100299.16;5236813;28;20112;-77
2023/07/05 03:14:52;;;;;;;6.13;3.40;;;;;;;15.92;100.00;100312.88;5235235;28;20472;-76
2023/07/05 03:17:24;;;;;;;10.50;3.33;;;;;;;15.85;100.00;100304.69;5235333;28;20028;-77
2023/07/05 03:19:57;;;;;;;6.10;3.97;;;;;;;15.78;100.00;100308.88;5235067;28;20037;-75
2023/07/05 03:22:29;;;;;;;7.23;3.90;;;;;;;15.76;100.00;100311.63;5234745;28;20045;-77
2023/07/05 03:25:00;;;;;;;6.60;3.83;;;;;;;15.79;100.00;100305.25;5233927;28;20040;-77
2023/07/05 03:27:31;;;;;;;6.73;4.00;;;;;;;15.70;100.00;100306.94;5250025;28;20119;-77
2023/07/05 03:30:03;;;;;;;7.60;4.07;;;;;;;15.77;100.00;100302.75;5234672;28;20434;-77
2023/07/05 03:32:34;;;;;;;5.57;3.50;;;;;;;15.76;100.00;100301.06;5235436;28;20033;-75
2023/07/05 03:35:06;;;;;;;4.80;3.10;;;;;;;15.76;100.00;100306.34;5234668;28;20025;-76
2023/07/05 03:37:38;;;;;;;5.97;4.03;;;;;;;15.66;100.00;100285.25;5234552;28;20026;-76
2023/07/05 03:40:09;;;;;;;6.60;3.80;;;;;;;15.72;100.00;100300.56;5234332;28;20100;-73
2023/07/05 03:42:41;;;;;;;5.80;3.77;;;;;;;15.71;100.00;100314.72;5234442;28;20128;-75
2023/07/05 03:45:12;;;;;;;8.20;3.70;;;;;;;15.71;100.00;100309.44;5234385;28;20029;-75
2023/07/05 03:47:43;;;;;;;6.90;3.73;;;;;;;15.71;100.00;100314.72;5234521;28;20040;-75
2023/07/05 03:50:14;;;;;;;5.40;3.70;;;;;;;15.72;100.00;100311.09;5250218;28;20021;-72
2023/07/05 03:52:46;;;;;;;8.63;4.20;;;;;;;15.62;100.00;100301.50;5233453;28;20034;-73
2023/07/05 03:55:17;;;;;;;8.27;3.90;;;;;;;15.70;100.00;100307.78;5245851;28;20385;-76
2023/07/05 03:57:48;;;;;;;5.03;3.97;;;;;;;15.56;100.00;100302.91;5225327;28;20060;-75
2023/07/05 04:00:20;;;;;;;5.47;3.27;;;;;;;15.57;100.00;100299.28;5234968;28;20071;-76
2023/07/05 04:02:51;;;;;;;8.97;3.80;;;;;;;15.64;100.00;100295.09;5234445;28;20041;-75
2023/07/05 04:05:22;;;;;;;8.53;4.03;;;;;;;15.53;100.00;100289.97;5234009;28;20033;-75
2023/07/05 04:07:54;;;;;;;6.70;4.20;;;;;;;15.60;100.00;100293.75;5232784;28;20084;-74
2023/07/05 04:10:25;;;;;;;5.03;3.77;;;;;;;15.65;100.00;100309.16;5233939;28;20025;-76
2023/07/05 04:12:56;;;;;;;8.33;4.17;;;;;;;15.62;100.00;100305.00;5234262;28;20483;-74
2023/07/05 04:15:28;;;;;;;7.47;4.30;;;;;;;15.57;100.00;100301.91;5234208;28;20033;-77
2023/07/05 04:17:59;;;;;;;8.17;4.00;;;;;;;15.57;100.00;100301.91;5234600;28;20526;-75
2023/07/05 04:20:31;;;;;;;5.10;3.77;;;;;;;15.60;100.00;100291.91;5234495;28;20025;-77
2023/07/05 04:23:03;;;;;;;6.93;4.60;;;;;;;15.52;100.00;100290.94;5233866;28;20399;-77
2023/07/05 04:25:35;;;;;;;9.70;4.80;;;;;;;15.67;100.00;100308.06;5234442;28;20036;-76
2023/07/05 04:28:07;;;;;;;7.07;3.97;;;;;;;15.76;100.00;100319.56;5234557;28;20416;-73
2023/07/05 04:30:38;;;;;;;8.03;4.27;;;;;;;15.63;100.00;100314.56;5234738;28;20030;-77
2023/07/05 04:33:09;;;;;;;9.67;4.67;;;;;;;15.67;100.00;100307.22;5235131;28;20030;-77
2023/07/05 04:35:49;;;;;;;7.43;4.60;;;;;;;15.85;100.00;100317.88;5234480;28;20067;-73
2023/07/05 04:38:21;;;;;;;7.77;4.60;;;;;;;15.55;100.00;100288.03;5234430;28;20031;-74
2023/07/05 04:40:53;;;;;;;6.17;3.67;;;;;;;15.72;100.00;100312.91;5235443;28;20034;-76
2023/07/05 04:43:26;;;;;;;8.30;4.33;;;;;;;15.64;100.00;100318.88;5238446;28;20033;-77
2023/07/05 04:45:58;;;;;;;6.60;4.00;;;;;;;15.56;100.00;100318.72;5238853;28;20092;-77
2023/07/05 04:48:30;;;;;;;5.37;3.50;;;;;;;15.57;100.00;100304.56;5249403;28;20510;-78
2023/07/05 04:51:02;;;;;;;7.40;3.80;;;;;;;15.64;100.00;100308.31;5237757;28;20084;-77
2023/07/05 04:53:33;;;;;;;8.33;4.63;;;;;;;15.66;100.00;100306.38;5237087;28;20025;-78
2023/07/05 04:56:04;;;;;;;7.83;4.23;;;;;;;15.71;100.00;100319.13;5237449;28;20033;-77
2023/07/05 04:58:35;;;;;;;6.50;4.43;;;;;;;15.76;100.00;100310.81;5238351;28;20049;-71
2023/07/05 05:01:07;;;;;;;7.20;4.10;;;;;;;15.64;100.00;100303.03;5238038;28;20485;-73
2023/07/05 05:03:39;;;;;;;6.80;4.20;;;;;;;15.64;100.00;100302.22;5237422;28;20095;-78
2023/07/05 05:06:10;;;;;;;6.47;4.10;;;;;;;15.68;100.00;100312.34;5238167;28;20036;-76
2023/07/05 05:08:41;;;;;;;8.43;4.73;;;;;;;15.67;100.00;100323.06;5236873;28;20018;-77
2023/07/05 05:11:13;;;;;;;7.53;4.23;;;;;;;15.75;100.00;100325.81;5238128;28;20606;-76
2023/07/05 05:13:44;;;;;;;9.87;4.03;;;;;;;15.87;100.00;100328.31;5237816;28;20053;-76
2023/07/05 05:16:15;;;;;;;8.07;4.37;;;;;;;15.76;100.00;100326.66;5238087;28;20026;-76
2023/07/05 05:18:47;;;;;;;9.77;4.47;;;;;;;15.78;100.00;100327.38;5237795;28;20056;-78
2023/07/05 05:21:18;;;;;;;6.87;3.57;;;;;;;15.72;100.00;100331.38;5237384;28;20144;-77
2023/07/05 05:23:49;;;;;;;6.00;3.50;;;;;;;15.81;100.00;100327.09;5237012;28;20021;-74
2023/07/05 05:26:21;;;;;;;7.23;3.57;;;;;;;15.83;100.00;100339.16;5237158;28;20101;-77
2023/07/05 05:28:52;;;;;;;6.60;3.73;;;;;;;15.78;100.00;100317.63;5236408;28;20053;-77
2023/07/05 05:31:23;;;;;;;8.17;3.13;;;;;;;15.72;100.00;100313.75;5237384;28;20072;-77
2023/07/05 05:33:55;;;;;;;6.70;3.33;;;;;;;15.75;100.00;100325.81;5236452;28;20039;-78
2023/07/05 05:36:26;;;;;;;4.60;3.17;;;;;;;15.78;100.00;100330.00;5237088;28;20637;-71
2023/07/05 05:38:57;;;;;;;9.33;3.30;;;;;;;15.65;100.00;100331.09;5236601;28;20025;-79
2023/07/05 05:41:28;;;;;;;6.93;3.60;;;;;;;15.62;100.00;100336.66;5236665;28;20096;-78
2023/07/05 05:44:00;;;;;;;5.50;3.50;;;;;;;15.65;100.00;100336.38;5236032;28;20021;-78
2023/07/05 05:46:31;;;;;;;6.93;3.50;;;;;;;15.66;100.00;100347.75;5252498;28;20057;-77
2023/07/05 05:49:03;;;;;;;46.77;4.43;;;;;;;15.63;100.00;100335.69;5237996;28;20024;-80
2023/07/05 05:51:34;;;;;;;7.60;3.43;;;;;;;15.63;100.00;100345.41;5236929;28;20121;-77
2023/07/05 05:54:05;;;;;;;7.43;3.53;;;;;;;15.64;100.00;100347.09;5234156;28;20029;-81
2023/07/05 05:56:36;;;;;;;7.73;3.97;;;;;;;15.65;100.00;100346.94;5236462;28;20112;-77
2023/07/05 05:59:08;;;;;;;4.47;2.90;;;;;;;15.63;100.00;100348.88;5236035;28;20044;-80
2023/07/05 06:01:44;;;;;;;5.23;3.67;;;;;;;15.61;100.00;100356.09;5250356;28;20493;-78
2023/07/05 06:04:15;;;;;;;7.87;3.37;;;;;;;15.63;100.00;100369.16;5236676;28;20383;-80
2023/07/05 06:06:47;;;;;;;5.53;3.30;;;;;;;15.52;100.00;100372.75;5235546;28;20053;-75
2023/07/05 06:09:18;;;;;;;7.13;3.23;;;;;;;15.46;100.00;100360.94;5235554;28;20506;-76
2023/07/05 06:11:50;;;;;;;10.97;3.87;;;;;;;15.43;100.00;100374.41;5234885;28;20037;-74
2023/07/05 06:14:22;;;;;;;8.97;3.83;;;;;;;15.51;100.00;100379.00;5251392;28;20017;-79
2023/07/05 06:16:53;;;;;;;8.93;3.33;;;;;;;15.53;100.00;100379.72;5236488;28;20034;-75
2023/07/05 06:19:24;;;;;;;5.03;2.67;;;;;;;15.61;100.00;100374.56;5236224;28;20022;-78
2023/07/05 06:21:56;;;;;;;7.07;3.67;;;;;;;15.57;100.00;100392.50;5235146;28;20072;-76
2023/07/05 06:24:27;;;;;;;7.77;3.33;;;;;;;15.56;100.00;100400.53;5246666;28;20049;-72
2023/07/05 06:27:00;;;;;;;6.60;3.50;;;;;;;15.63;100.00;100403.47;5235605;28;20112;-71
2023/07/05 06:29:31;;;;;;;8.37;2.87;;;;;;;15.73;100.00;100389.31;5236389;28;20030;-83
2023/07/05 06:32:03;;;;;;;3.83;2.37;;;;;;;15.74;100.00;100419.22;5236142;28;20025;-81
2023/07/05 06:34:34;;;;;;;4.83;2.67;;;;;;;15.80;100.00;100404.59;5235739;28;20053;-80
2023/07/05 06:37:05;;;;;;;5.23;2.73;;;;;;;15.79;100.00;100405.59;5237096;28;20799;-80
2023/07/05 06:39:37;;;;;;;6.10;2.60;;;;;;;15.91;100.00;100396.56;5250815;28;20029;-80
2023/07/05 06:42:08;;;;;;;6.80;2.87;;;;;;;16.02;100.00;100415.94;5236817;28;20048;-72
2023/07/05 06:44:40;;;;;;;8.53;2.87;;;;;;;16.11;100.00;100415.06;5236484;28;20087;-79
2023/07/05 06:47:11;;;;;;;8.20;3.20;;;;;;;16.08;100.00;100407.44;5236469;28;20096;-80
2023/07/05 06:49:43;;;;;;;8.80;2.60;;;;;;;16.15;100.00;100429.69;5235856;28;20411;-77
2023/07/05 06:52:15;;;;;;;8.63;2.83;;;;;;;16.19;100.00;100431.09;5235586;28;20029;-75
2023/07/05 06:54:46;;;;;;;5.83;2.17;;;;;;;16.18;100.00;100437.31;5235146;28;20442;-78
2023/07/05 06:57:19;;;;;;;5.03;2.13;;;;;;;16.25;100.00;100442.06;5235686;28;20065;-80
2023/07/05 06:59:51;;;;;;;3.93;2.27;;;;;;;16.26;100.00;100433.16;5236172;28;20456;-80
2023/07/05 07:02:22;;;;;;;7.93;2.20;;;;;;;16.30;100.00;100443.31;5235499;28;20037;-80
2023/07/05 07:04:53;;;;;;;6.57;2.40;;;;;;;16.44;100.00;100447.31;5250610;28;20039;-74
2023/07/05 07:07:24;;;;;;;6.37;2.20;;;;;;;16.52;100.00;100429.94;5234296;28;20090;-77
2023/07/05 07:09:56;;;;;;;4.13;2.20;;;;;;;16.48;100.00;100450.53;5235410;28;20106;-78
2023/07/05 07:12:27;;;;;;;7.07;2.30;;;;;;;16.51;100.00;100452.06;5235885;28;20021;-76
2023/07/05 07:14:58;;;;;;;6.27;2.10;;;;;;;16.57;100.00;100462.91;5236451;28;20025;-77
2023/07/05 07:17:30;;;;;;;8.67;2.03;;;;;;;16.55;100.00;100475.44;5235945;28;20032;-78
2023/07/05 07:20:01;;;;;;;3.17;1.53;;;;;;;16.52;100.00;100465.16;5235940;28;20709;-78
2023/07/05 07:22:33;;;;;;;4.93;1.70;;;;;;;16.50;100.00;100461.81;5233802;28;20026;-77
2023/07/05 07:25:05;;;;;;;5.80;2.57;;;;;;;16.51;100.00;100495.19;5235527;28;20029;-77
2023/07/05 07:27:36;;;;;;;6.80;2.17;;;;;;;16.52;100.00;100496.88;5234206;28;20052;-79
2023/07/05 07:30:08;;;;;;;11.93;2.73;;;;;;;16.54;100.00;100496.72;5235165;28;20048;-76
2023/07/05 07:32:39;;;;;;;5.20;2.23;;;;;;;16.33;100.00;100514.41;5234322;28;20026;-73
2023/07/05 07:35:10;;;;;;;7.50;2.30;;;;;;;16.29;100.00;100512.16;5232305;28;20022;-76
2023/07/05 07:37:42;;;;;;;8.60;2.47;;;;;;;16.20;100.00;100519.94;5233577;28;20049;-77
2023/07/05 07:40:13;;;;;;;6.27;3.33;;;;;;;16.07;100.00;100535.22;5233959;28;20294;-76
2023/07/05 07:42:44;;;;;;;5.57;1.90;;;;;;;15.89;100.00;100522.63;5233440;28;20141;-74
2023/07/05 07:45:16;;;;;;;7.20;2.63;;;;;;;15.94;100.00;100533.63;5233844;28;20158;-76
2023/07/05 07:47:48;;;;;;;7.67;2.57;;;;;;;15.84;100.00;100538.03;5233125;28;20108;-73
2023/07/05 07:50:19;;;;;;;6.63;2.33;;;;;;;15.83;100.00;100546.94;5234160;28;20624;-76
2023/07/05 07:52:52;;;;;;;5.47;2.37;;;;;;;15.77;100.00;100547.44;5248319;28;20537;-74
2023/07/05 07:55:23;;;;;;;4.83;2.17;;;;;;;15.72;100.00;100553.16;5232892;28;20036;-77
2023/07/05 07:57:54;;;;;;;4.77;2.43;;;;;;;15.59;100.00;100559.47;5234767;28;20033;-72
2023/07/05 08:00:25;;;;;;;8.63;2.70;;;;;;;15.68;100.00;100572.84;5242672;28;20021;-76
2023/07/05 08:02:57;;;;;;;5.43;2.30;;;;;;;15.58;100.00;100562.25;5234255;28;20052;-77
2023/07/05 08:05:29;;;;;;;7.87;3.00;;;;;;;15.56;100.00;100556.25;5234333;28;20287;-75
2023/07/05 08:08:01;;;;;;;5.50;2.53;;;;;;;15.56;100.00;100558.91;5248462;28;20050;-76
2023/07/05 08:10:32;;;;;;;4.07;2.50;;;;;;;15.54;100.00;100558.19;5234951;28;20434;-75
2023/07/05 08:13:03;;;;;;;4.53;2.37;;;;;;;15.50;100.00;100560.25;5234769;28;20029;-77
2023/07/05 08:15:34;;;;;;;8.20;2.40;;;;;;;15.57;100.00;100571.13;5232947;28;20022;-76
2023/07/05 08:18:06;;;;;;;5.70;2.50;;;;;;;16.08;100.00;100564.13;5234849;28;20468;-77
2023/07/05 08:20:37;;;;;;;5.87;2.40;;;;;;;16.64;100.00;100584.78;5234132;28;20026;-76
2023/07/05 08:23:08;;;;;;;9.17;2.50;;;;;;;17.08;100.00;100582.69;5233144;28;20848;-77
2023/07/05 08:25:42;;;;;;;5.03;3.03;;;;;;;17.55;100.00;100576.63;5234412;28;20038;-75
2023/07/05 08:28:13;;;;;;;9.23;2.55;;;;;;;18.02;100.00;100573.06;5236873;28;20025;-77
2023/07/05 08:30:51;;;;;;;6.13;2.20;;;;;;;18.02;100.00;100577.53;5234285;28;20063;-77
2023/07/05 08:33:24;;;;;;;8.27;2.57;;;;;;;18.65;100.00;100576.84;5234558;28;20108;-72
2023/07/05 08:36:04;;;;;;;6.53;2.20;;;;;;;19.48;100.00;100588.09;5233610;28;20040;-78
2023/07/05 08:38:43;;;;;;;11.80;2.83;;;;;;;19.69;100.00;100592.19;5248325;28;20060;-77
2023/07/05 08:41:43;;;;;;;5.93;2.10;;;;;;;19.62;100.00;100596.50;5233681;28;20029;-78
2023/07/05 08:44:32;;;;;;;9.50;3.17;;;;;;;19.31;100.00;100613.72;5234084;28;20029;-76
2023/07/05 08:47:32;;;;;;;6.07;2.63;;;;;;;19.60;100.00;100615.25;5234478;28;20025;-78
2023/07/05 08:50:22;;;;;;;4.30;2.73;;;;;;;19.99;100.00;100629.03;5234315;28;20018;-77
2023/07/05 08:53:09;;;;;;;7.93;2.40;;;;;;;20.59;100.00;100629.06;5231597;28;20017;-78
2023/07/05 08:55:46;;;;;;;5.10;2.13;;;;;;;21.21;100.00;100626.94;5234737;28;20450;-82
2023/07/05 08:58:38;;;;;;;7.87;2.20;;;;;;;21.79;100.00;100623.34;5234040;28;20066;-74
2023/07/05 09:01:18;;;;;;;6.70;2.28;;;;;;;22.21;100.00;100624.88;5234164;28;20088;-77
2023/07/05 09:03:49;;;;;;;10.35;2.70;;;;;;;22.39;100.00;100642.44;5233599;28;20067;-76
2023/07/05 09:06:29;;;;;;;10.35;2.33;;;;;;;22.74;100.00;100649.25;5233563;28;20037;-81
2023/07/05 09:09:24;;;;;;;5.53;1.80;;;;;;;23.21;100.00;100650.06;5232543;28;20037;-82
2023/07/05 09:12:13;;;;;;;8.57;2.35;;;;;;;23.83;100.00;100657.97;5246505;28;20458;-85
2023/07/05 09:15:11;;;;;;;10.35;2.75;;;;;;;23.53;100.00;100642.75;5248302;28;20047;-81
2023/07/05 09:18:04;;;;;;;7.50;2.28;;;;;;;22.70;100.00;100665.63;5237496;28;20042;-80
2023/07/05 09:20:38;;;;;;;5.63;2.10;;;;;;;22.25;94.37;100673.34;5233337;28;20029;-79
2023/07/05 09:23:16;;;;;;;7.55;2.00;;;;;;;22.40;94.98;100680.59;5233572;28;20522;-80
2023/07/05 09:25:50;;;;;;;7.93;2.50;;;;;;;22.50;93.38;100681.22;5233906;28;20038;-79
2023/07/05 09:28:25;;;;;;;;;;;;;;;23.63;92.67;100668.38;5237229;28;20037;-78
2023/07/05 09:30:58;;;;;;;7.93;2.50;;;;;;;23.39;88.07;100691.63;5236037;28;20333;-73
2023/07/05 09:33:38;;;;;;;3.38;2.00;;;;;;;23.95;83.35;100686.91;5234279;28;20075;-78
2023/07/05 09:36:25;;;;;;;6.93;2.00;;;;;;;24.71;77.39;100709.03;5232968;28;20457;-75
2023/07/05 09:39:06;;;;;;;11.63;2.15;;;;;;;24.79;69.49;100724.97;5249976;28;20039;-72
2023/07/05 09:41:46;;;;;;;5.20;1.80;;;;;;;24.74;55.20;100722.03;5236869;28;20029;-76
2023/07/05 09:44:19;;;;;;;5.72;2.35;;;;;;;24.57;50.77;100698.19;5237046;28;20026;-72
2023/07/05 09:46:51;;;;;;;5.20;1.73;;;;;;;24.44;50.09;100714.91;5236253;28;20079;-79
2023/07/05 09:49:22;;;;;;;7.05;2.00;;;;;;;24.60;50.95;100742.47;5236255;28;20018;-79
2023/07/05 09:51:54;;;;;;;4.93;1.50;;;;;;;24.48;49.68;100736.78;5234533;28;20398;-79
2023/07/05 09:54:31;;;;;;;6.25;1.85;;;;;;;25.03;49.91;100736.38;5237360;28;20022;-78
2023/07/05 09:57:09;;;;;;;5.70;1.60;;;;;;;24.93;49.95;100731.34;5235144;28;20060;-71
2023/07/05 09:59:40;;;;;;;6.00;1.92;;;;;;;25.20;49.38;100749.53;5234321;28;20029;-79
2023/07/05 10:02:14;;;;;;;6.43;1.80;;;;;;;25.62;48.60;100745.13;5235070;28;20041;-78
2023/07/05 10:04:54;;;;;;;6.35;1.60;;;;;;;25.78;49.03;100751.22;5235268;28;20060;-80
2023/07/05 10:07:29;;;;;;;3.40;1.48;;;;;;;25.88;39.89;100747.38;5235704;28;20084;-77
2023/07/05 10:10:07;;;;;;;11.30;1.70;;;;;;;26.28;40.39;100760.19;5237110;28;20185;-77
2023/07/05 10:12:41;;;;;;;10.50;1.95;;;;;;;26.06;39.89;100761.09;5236126;28;20033;-81
2023/07/05 10:15:23;;;;;;;4.45;2.03;;;;;;;26.57;39.13;100772.53;5236897;28;20391;-80
2023/07/05 10:17:55;;;;;;;10.95;1.90;;;;;;;26.57;38.74;100769.84;5239464;28;20060;-77
2023/07/05 10:20:32;;;;;;;8.40;1.50;;;;;;;25.90;37.06;100772.16;5235725;28;20029;-79
2023/07/05 10:23:14;;;;;;;7.00;1.98;;;;;;;26.01;37.29;100792.25;5234824;28;20037;-82
2023/07/05 10:25:46;;;;;;;9.23;3.08;;;;;;;26.28;37.39;100790.56;5236331;28;20468;-74
2023/07/05 10:28:25;;;;;;;3.78;1.20;;;;;;;26.56;38.24;100808.47;5236017;28;20029;-81
2023/07/05 10:30:59;;;;;;;5.43;1.73;;;;;;;26.29;36.41;100802.94;5235894;28;20040;-82
2023/07/05 10:33:37;;;;;;;6.20;1.67;;;;;;;26.34;37.38;100810.41;5235697;28;20065;-87
2023/07/05 10:36:08;;;;;;;6.43;2.20;;;;;;;26.98;36.11;100814.81;5234035;28;20159;-87
2023/07/05 10:38:48;;;;;;;6.00;1.50;;;;;;;27.58;35.81;100811.38;5234217;28;20515;-76
2023/07/05 10:41:19;;;;;;;5.32;1.70;;;;;;;27.01;34.36;100809.03;5235417;28;20033;-78
2023/07/05 10:44:15;;;;;;;5.78;1.55;;;;;;;27.37;36.04;100840.13;5251110;28;20456;-76
2023/07/05 10:46:48;;;;;;;6.03;1.30;;;;;;;26.88;33.14;100836.69;5234834;28;20102;-83
2023/07/05 10:49:20;;;;;;;4.50;1.10;;;;;;;27.02;33.21;100826.81;5236073;28;20026;-83
2023/07/05 10:51:56;;;;;;;4.20;1.23;;;;;;;26.92;35.35;100833.41;5234109;28;20048;-80
2023/07/05 10:54:35;;;;;;;4.20;1.48;;;;;;;27.22;33.46;100828.72;5229686;28;20113;-79
2023/07/05 10:57:40;;;;;;;2.97;1.50;;;;;;;27.38;32.70;100840.97;5236485;28;20462;-77
2023/07/05 11:00:24;;;;;;;6.80;1.50;;;;;;;27.21;32.62;100852.13;5234375;28;20053;-69
2023/07/05 11:03:00;;;;;;;9.15;1.50;;;;;;;27.00;32.55;100851.19;5235715;28;20124;-70
2023/07/05 11:05:55;;;;;;;5.20;1.95;;;;;;;27.33;33.97;100841.59;5234829;28;20101;-70
2023/07/05 11:08:29;;;;;;;3.85;1.35;;;;;;;27.58;32.82;100848.22;5234714;28;20120;-70
2023/07/05 11:11:04;;;;;;;6.93;1.58;;;;;;;26.99;32.44;100865.66;5250710;28;20048;-70
2023/07/05 11:13:35;;;;;;;8.18;1.95;;;;;;;26.91;32.54;100869.38;5235550;28;20029;-71
2023/07/05 11:16:06;;;;;;;5.68;1.25;;;;;;;26.43;33.13;100862.09;5235799;28;20021;-70
2023/07/05 11:18:38;;;;;;;3.83;1.55;;;;;;;26.68;33.55;100875.88;5235514;28;20468;-70
2023/07/05 11:21:37;;;;;;;10.20;1.63;;;;;;;27.24;32.89;100870.53;5235120;28;20037;-70
2023/07/05 11:24:09;;;;;;;5.43;1.45;;;;;;;27.03;32.20;100872.31;5250737;28;20660;-70
2023/07/05 11:26:44;;;;;;;9.30;1.77;;;;;;;27.09;32.45;100880.63;5235341;28;20475;-70
2023/07/05 11:29:24;;;;;;;8.70;1.98;;;;;;;27.20;32.31;100877.31;5235821;28;20048;-70
2023/07/05 11:31:59;;;;;;;5.53;1.65;;;;;;;27.12;32.32;100883.72;5235629;28;20029;-70
2023/07/05 11:34:46;;;;;;;4.45;1.45;;;;;;;27.14;32.05;100875.47;5250291;28;20067;-70
2023/07/05 11:37:17;;;;;;;9.48;1.58;;;;;;;27.00;31.91;100883.41;5234675;28;20028;-70
2023/07/05 11:39:52;;;;;;;4.93;1.52;;;;;;;27.26;33.40;100876.53;5234791;28;20025;-70
2023/07/05 11:42:24;;;;;;;5.68;1.55;;;;;;;27.16;32.56;100881.47;5235303;28;20022;-70
2023/07/05 11:44:56;;;;;;;5.00;1.67;;;;;;;27.28;32.23;100890.56;5235259;28;20025;-70
2023/07/05 11:47:33;;;;;;;5.88;1.90;;;;;;;27.03;32.42;100888.44;5234679;28;20014;-70
2023/07/05 11:50:09;;;;;;;2.47;1.30;;;;;;;27.28;30.34;100885.19;5235288;28;20079;-70
2023/07/05 11:52:46;;;;;;;4.07;1.48;;;;;;;26.96;31.81;100905.53;5234495;28;20032;-70
2023/07/05 11:55:26;;;;;;;3.15;1.60;;;;;;;27.03;31.35;100899.19;5231567;28;20009;-70
2023/07/05 11:58:10;;;;;;;5.57;1.58;;;;;;;27.32;31.75;100903.63;5231192;28;20391;-70